Time;durP1;ratioP1;P1;durP2;ratioP2;P2;SDS_P1;SDS_P2;PMS_P1;PMS_P2;Temp;Humidity;BMP_temperature;BMP_pressure;BME280_temperature;BME280_humidity;BME280_pressure;Samples;Min_cycle;Max_cycle;Signal;HPM_P1;HPM_P2
2021/05/19 00:01:27;;;;;;;2.97;1.97;;;12.60;99.90;;;;;;5022154;28;20438;-69
2021/05/19 00:03:53;;;;;;;2.40;2.13;;;12.50;99.90;;;;;;5021286;28;21030;-71
2021/05/19 00:06:18;;;;;;;2.20;2.00;;;12.40;99.90;;;;;;5025698;28;20180;-70
2021/05/19 00:08:44;;;;;;;2.30;2.10;;;12.40;99.90;;;;;;5019935;28;20729;-69
2021/05/19 00:11:10;;;;;;;2.07;1.90;;;12.40;99.90;;;;;;5023753;28;20193;-69
2021/05/19 00:13:36;;;;;;;2.60;2.20;;;12.30;99.90;;;;;;5022855;28;20212;-68
2021/05/19 00:16:06;;;;;;;4.40;2.20;;;12.30;99.90;;;;;;5023569;28;20804;-70
2021/05/19 00:18:31;;;;;;;4.70;1.93;;;12.20;99.90;;;;;;5023165;28;21019;-70
2021/05/19 00:20:57;;;;;;;2.20;2.00;;;12.20;99.90;;;;;;5023211;28;20455;-67
2021/05/19 00:23:22;;;;;;;2.10;1.70;;;12.10;99.90;;;;;;5023388;28;20792;-70
2021/05/19 00:25:48;;;;;;;2.43;2.20;;;12.10;99.90;;;;;;5023810;28;20201;-70
2021/05/19 00:28:14;;;;;;;2.80;2.10;;;12.10;99.90;;;;;;5023841;28;20211;-70
2021/05/19 00:30:40;;;;;;;2.80;1.97;;;12.10;99.90;;;;;;5023245;28;20236;-68
2021/05/19 00:33:06;;;;;;;2.50;2.30;;;12.10;99.90;;;;;;5024337;28;20262;-69
2021/05/19 00:35:32;;;;;;;2.30;2.10;;;12.00;99.90;;;;;;5023096;28;21031;-67
2021/05/19 00:37:57;;;;;;;2.00;1.90;;;12.00;99.90;;;;;;5024115;28;20211;-69
2021/05/19 00:40:23;;;;;;;1.97;1.77;;;12.10;99.90;;;;;;5022209;28;21216;-71
2021/05/19 00:42:51;;;;;;;2.80;1.80;;;12.00;99.90;;;;;;5024788;28;20465;-70
2021/05/19 00:45:17;;;;;;;2.23;2.03;;;12.00;99.90;;;;;;5023754;28;20721;-71
2021/05/19 00:47:43;;;;;;;3.90;2.07;;;12.00;99.90;;;;;;5024930;28;20828;-71
2021/05/19 00:50:13;;;;;;;2.30;2.10;;;12.00;99.90;;;;;;5024349;28;21901;-70
2021/05/19 00:52:38;;;;;;;5.47;2.30;;;12.00;99.90;;;;;;5024875;28;20439;-72
2021/05/19 00:55:05;;;;;;;3.30;2.13;;;11.90;99.90;;;;;;5023883;28;20431;-70
2021/05/19 00:57:31;;;;;;;2.93;2.73;;;11.80;99.90;;;;;;5024117;28;20216;-68
2021/05/19 00:59:58;;;;;;;2.97;2.10;;;11.80;99.90;;;;;;5025498;28;20577;-72
2021/05/19 01:02:23;;;;;;;4.13;2.10;;;11.90;99.90;;;;;;5022871;28;21463;-70
2021/05/19 01:04:49;;;;;;;2.47;1.93;;;11.90;99.90;;;;;;5024718;28;20447;-69
2021/05/19 01:07:22;;;;;;;3.33;2.00;;;11.90;99.90;;;;;;5026633;28;20331;-70
2021/05/19 01:09:48;;;;;;;3.30;2.53;;;11.80;99.90;;;;;;5020550;28;20562;-70
2021/05/19 01:12:17;;;;;;;2.87;2.10;;;11.80;99.90;;;;;;5024735;28;20572;-70
2021/05/19 01:14:45;;;;;;;3.90;2.37;;;11.80;99.90;;;;;;5023617;28;20933;-69
2021/05/19 01:17:12;;;;;;;2.30;2.10;;;11.70;99.90;;;;;;5023622;28;20516;-71
2021/05/19 01:19:44;;;;;;;2.40;2.03;;;11.60;99.90;;;;;;5024711;28;20448;-70
2021/05/19 01:22:11;;;;;;;2.10;1.90;;;11.70;99.90;;;;;;5027458;28;20529;-70
2021/05/19 01:24:39;;;;;;;3.20;2.90;;;11.70;99.90;;;;;;5024891;28;20447;-70
2021/05/19 01:27:07;;;;;;;3.37;2.77;;;11.60;99.90;;;;;;5023937;28;20478;-70
2021/05/19 01:29:33;;;;;;;2.70;2.50;;;11.60;99.90;;;;;;5026367;28;20478;-71
2021/05/19 01:31:59;;;;;;;2.47;2.27;;;11.60;99.90;;;;;;5024925;28;20743;-71
2021/05/19 01:34:26;;;;;;;2.50;2.23;;;11.60;99.90;;;;;;5024143;28;20483;-71
2021/05/19 01:36:51;;;;;;;2.57;2.37;;;11.60;99.90;;;;;;5023755;28;20443;-70
2021/05/19 01:39:17;;;;;;;3.67;2.60;;;11.50;99.90;;;;;;5026942;28;20438;-70
2021/05/19 01:41:43;;;;;;;3.87;2.23;;;11.50;99.90;;;;;;5023394;28;20272;-70
2021/05/19 01:44:17;;;;;;;3.20;2.03;;;11.50;99.90;;;;;;5021430;28;20804;-69
2021/05/19 01:46:43;;;;;;;3.93;2.40;;;11.50;99.90;;;;;;5022362;28;20559;-69
2021/05/19 01:49:10;;;;;;;2.57;2.20;;;11.50;99.90;;;;;;5022422;28;20463;-70
2021/05/19 01:51:37;;;;;;;2.60;2.40;;;11.50;99.90;;;;;;5021686;28;20440;-70
2021/05/19 01:54:04;;;;;;;2.47;2.27;;;11.50;99.90;;;;;;5024376;28;20455;-68
2021/05/19 01:56:30;;;;;;;2.50;2.30;;;11.40;99.90;;;;;;5026513;28;20828;-69
2021/05/19 01:58:57;;;;;;;6.83;3.30;;;11.40;99.90;;;;;;5022043;28;20439;-70
2021/05/19 02:01:23;;;;;;;2.43;2.23;;;11.40;99.90;;;;;;5023129;28;20451;-69
2021/05/19 02:03:49;;;;;;;4.90;2.67;;;11.40;99.90;;;;;;5025883;28;20846;-70
2021/05/19 02:06:15;;;;;;;2.67;2.37;;;11.40;99.90;;;;;;5023275;28;20725;-69
2021/05/19 02:08:40;;;;;;;3.90;2.50;;;11.40;99.90;;;;;;5023966;28;20813;-70
2021/05/19 02:11:06;;;;;;;4.67;2.87;;;11.30;99.90;;;;;;5024223;28;20200;-69
2021/05/19 02:13:31;;;;;;;4.10;2.57;;;11.30;99.90;;;;;;5026430;28;20574;-68
2021/05/19 02:15:57;;;;;;;2.70;2.30;;;11.30;99.90;;;;;;5023365;28;20205;-70
2021/05/19 02:18:23;;;;;;;6.93;2.20;;;11.30;99.90;;;;;;5022994;28;20616;-71
2021/05/19 02:20:48;;;;;;;4.20;2.30;;;11.30;99.90;;;;;;5024909;28;20234;-69
2021/05/19 02:23:14;;;;;;;2.17;1.97;;;11.20;99.90;;;;;;5025584;28;21001;-70
2021/05/19 02:25:40;;;;;;;4.30;2.17;;;11.10;99.90;;;;;;5023010;28;20222;-70
2021/05/19 02:28:05;;;;;;;2.67;2.07;;;11.00;99.90;;;;;;5026572;28;20777;-70
2021/05/19 02:30:31;;;;;;;3.50;2.37;;;11.10;99.90;;;;;;5025155;28;20699;-71
2021/05/19 02:32:57;;;;;;;2.30;2.10;;;11.10;99.90;;;;;;5020715;28;20775;-69
2021/05/19 02:35:22;;;;;;;2.87;2.57;;;11.10;99.90;;;;;;5020287;28;20810;-69
2021/05/19 02:37:48;;;;;;;4.63;2.40;;;11.10;99.90;;;;;;5020704;28;20188;-70
2021/05/19 02:40:15;;;;;;;3.40;2.73;;;11.10;99.90;;;;;;5020383;28;20211;-68
2021/05/19 02:42:43;;;;;;;4.43;2.50;;;11.10;99.90;;;;;;5019890;28;20266;-71
2021/05/19 02:45:09;;;;;;;4.70;2.43;;;11.10;99.90;;;;;;5020222;28;20450;-70
2021/05/19 02:47:35;;;;;;;2.67;2.47;;;11.00;99.90;;;;;;5019063;28;20439;-70
2021/05/19 02:50:02;;;;;;;3.63;2.37;;;11.00;99.90;;;;;;5020985;28;20482;-71
2021/05/19 02:52:28;;;;;;;3.03;2.63;;;11.00;99.90;;;;;;5019377;28;20196;-70
2021/05/19 02:54:53;;;;;;;3.20;2.20;;;11.00;99.90;;;;;;5016070;28;20969;-69
2021/05/19 02:57:19;;;;;;;3.23;2.77;;;11.00;99.90;;;;;;5020307;28;20192;-71
2021/05/19 02:59:45;;;;;;;3.57;2.97;;;11.00;99.90;;;;;;5018920;28;20675;-68
2021/05/19 03:02:10;;;;;;;2.97;2.67;;;11.10;99.90;;;;;;5015709;28;20196;-70
2021/05/19 03:04:37;;;;;;;2.97;2.50;;;11.10;99.90;;;;;;5021329;28;20254;-68
2021/05/19 03:07:04;;;;;;;4.67;2.90;;;10.90;99.90;;;;;;5021136;28;20718;-70
2021/05/19 03:09:29;;;;;;;4.87;2.97;;;11.00;99.90;;;;;;5020277;28;20475;-71
2021/05/19 03:11:55;;;;;;;2.70;2.50;;;10.90;99.90;;;;;;5020184;28;20513;-68
2021/05/19 03:14:21;;;;;;;6.50;3.50;;;11.00;99.90;;;;;;5019838;28;20216;-68
2021/05/19 03:16:46;;;;;;;3.77;2.90;;;11.00;99.90;;;;;;5017620;28;20199;-70
2021/05/19 03:19:12;;;;;;;4.10;2.80;;;11.00;99.90;;;;;;5020522;28;20203;-70
2021/05/19 03:21:37;;;;;;;3.87;2.80;;;11.00;99.90;;;;;;5018970;28;20283;-69
2021/05/19 03:24:04;;;;;;;2.50;2.30;;;11.00;99.90;;;;;;5019612;28;20216;-69
2021/05/19 03:26:29;;;;;;;2.60;2.40;;;11.00;99.90;;;;;;5019864;28;20184;-69
2021/05/19 03:28:55;;;;;;;2.70;2.50;;;11.00;99.90;;;;;;5018502;28;20469;-68
2021/05/19 03:31:21;;;;;;;2.80;2.57;;;11.10;99.90;;;;;;5019024;28;20295;-69
2021/05/19 03:33:47;;;;;;;2.87;2.47;;;11.00;99.90;;;;;;5020439;28;20558;-70
2021/05/19 03:36:13;;;;;;;2.80;2.50;;;11.00;99.90;;;;;;5018941;28;20193;-70
2021/05/19 03:38:39;;;;;;;5.40;3.00;;;11.00;99.90;;;;;;5022708;28;20447;-70
2021/05/19 03:41:06;;;;;;;3.00;2.53;;;10.90;99.90;;;;;;5019774;28;20188;-69
2021/05/19 03:43:33;;;;;;;3.30;2.80;;;10.90;99.90;;;;;;5018920;28;20455;-70
2021/05/19 03:45:59;;;;;;;3.47;2.47;;;10.90;99.90;;;;;;5019896;28;20506;-70
2021/05/19 03:48:25;;;;;;;2.90;2.70;;;11.00;99.90;;;;;;5019325;28;20534;-70
2021/05/19 03:50:51;;;;;;;2.90;2.70;;;11.10;99.90;;;;;;5019222;28;20216;-71
2021/05/19 03:53:16;;;;;;;2.90;2.60;;;11.10;99.90;;;;;;5018675;28;20803;-68
2021/05/19 03:55:43;;;;;;;3.13;2.47;;;11.10;99.90;;;;;;5020557;28;20184;-71
2021/05/19 03:58:10;;;;;;;2.40;2.20;;;11.10;99.90;;;;;;5017851;28;20634;-70
2021/05/19 04:00:35;;;;;;;5.90;2.93;;;11.10;99.90;;;;;;5020102;28;20462;-68
2021/05/19 04:03:03;;;;;;;4.70;4.30;;;11.10;99.90;;;;;;5018509;28;20539;-68
2021/05/19 04:05:32;;;;;;;3.17;2.87;;;11.10;99.90;;;;;;5018453;28;20240;-71
2021/05/19 04:07:58;;;;;;;4.43;2.50;;;11.20;99.90;;;;;;5022476;28;20555;-68
2021/05/19 04:10:25;;;;;;;3.93;2.67;;;11.20;99.90;;;;;;5023169;28;20495;-70
2021/05/19 04:12:51;;;;;;;2.80;2.60;;;11.20;99.90;;;;;;5020123;28;20216;-70
2021/05/19 04:15:19;;;;;;;2.80;2.50;;;11.30;99.90;;;;;;5025633;28;20920;-71
2021/05/19 04:17:45;;;;;;;3.00;2.70;;;11.40;99.90;;;;;;5021711;28;20447;-71
2021/05/19 04:20:11;;;;;;;4.30;2.40;;;11.40;99.90;;;;;;5020482;28;20446;-69
2021/05/19 04:22:37;;;;;;;2.60;2.40;;;11.50;99.90;;;;;;5023776;28;20196;-70
2021/05/19 04:25:04;;;;;;;4.50;2.40;;;11.50;99.90;;;;;;5022000;28;20976;-70
2021/05/19 04:27:30;;;;;;;2.40;2.20;;;11.40;99.90;;;;;;5023903;28;20602;-70
2021/05/19 04:29:56;;;;;;;2.50;2.30;;;11.50;99.90;;;;;;5024035;28;20471;-70
2021/05/19 04:32:21;;;;;;;3.03;2.30;;;11.50;99.90;;;;;;5022679;28;20185;-69
2021/05/19 04:34:47;;;;;;;5.97;2.67;;;11.50;99.90;;;;;;5025658;28;20206;-69
2021/05/19 04:37:12;;;;;;;3.20;2.70;;;11.50;99.90;;;;;;5027981;28;20207;-71
2021/05/19 04:39:38;;;;;;;7.70;2.93;;;11.50;99.90;;;;;;5027651;28;20668;-70
2021/05/19 04:42:04;;;;;;;2.67;2.47;;;11.60;99.90;;;;;;5027227;28;20857;-71
2021/05/19 04:44:30;;;;;;;3.67;2.60;;;11.70;99.90;;;;;;5025602;28;20208;-71
2021/05/19 04:46:55;;;;;;;3.30;2.60;;;11.70;99.90;;;;;;5026999;28;20442;-70
2021/05/19 04:49:21;;;;;;;4.90;2.70;;;11.70;99.90;;;;;;5025440;28;20204;-70
2021/05/19 04:51:47;;;;;;;3.27;2.20;;;11.70;99.90;;;;;;5022708;28;20845;-69
2021/05/19 04:54:13;;;;;;;4.10;2.70;;;11.60;99.90;;;;;;5026985;28;20319;-69
2021/05/19 04:56:39;;;;;;;3.13;2.50;;;11.60;99.90;;;;;;5029178;28;20196;-71
2021/05/19 04:59:05;;;;;;;5.87;2.77;;;11.70;99.90;;;;;;5025934;28;20442;-71
2021/05/19 05:01:31;;;;;;;3.67;3.30;;;11.60;99.90;;;;;;5026556;28;20222;-68
2021/05/19 05:03:56;;;;;;;4.27;3.00;;;11.50;99.90;;;;;;5025200;28;20455;-70
2021/05/19 05:06:22;;;;;;;3.23;2.50;;;11.50;99.90;;;;;;5024914;28;20180;-71
2021/05/19 05:08:47;;;;;;;6.03;3.33;;;11.60;99.90;;;;;;5024068;28;20196;-70
2021/05/19 05:11:14;;;;;;;4.53;3.00;;;11.50;99.90;;;;;;5025554;28;20193;-70
2021/05/19 05:13:40;;;;;;;3.00;2.70;;;11.50;99.90;;;;;;5029425;28;20208;-70
2021/05/19 05:16:06;;;;;;;3.60;2.73;;;11.50;99.90;;;;;;5023123;28;20448;-70
2021/05/19 05:18:39;;;;;;;3.00;2.70;;;11.50;99.90;;;;;;5024460;28;20188;-70
2021/05/19 05:21:06;;;;;;;4.43;3.17;;;11.50;99.90;;;;;;5022823;28;20195;-69
2021/05/19 05:23:32;;;;;;;3.30;2.90;;;11.60;99.90;;;;;;5026742;28;20443;-71
2021/05/19 05:26:02;;;;;;;3.40;3.10;;;11.50;99.90;;;;;;5021449;28;20771;-68
2021/05/19 05:28:28;;;;;;;3.10;2.80;;;11.50;99.90;;;;;;5023662;28;20196;-68
2021/05/19 05:30:55;;;;;;;4.93;3.30;;;11.50;99.90;;;;;;5025913;28;20547;-70
2021/05/19 05:33:21;;;;;;;3.13;2.83;;;11.50;99.90;;;;;;5023811;28;20540;-70
2021/05/19 05:35:46;;;;;;;7.10;3.20;;;11.50;99.90;;;;;;5026318;28;20446;-70
2021/05/19 05:38:12;;;;;;;5.67;3.40;;;11.50;99.90;;;;;;5024623;28;20945;-70
2021/05/19 05:40:38;;;;;;;3.63;2.90;;;11.50;99.90;;;;;;5019042;28;20203;-70
2021/05/19 05:43:04;;;;;;;5.93;3.23;;;11.70;99.90;;;;;;5026188;28;20238;-70
2021/05/19 05:45:30;;;;;;;9.20;3.60;;;11.60;99.90;;;;;;5025061;28;20582;-68
2021/05/19 05:47:56;;;;;;;4.67;3.40;;;11.60;99.90;;;;;;5024447;28;20439;-70
2021/05/19 05:50:23;;;;;;;5.73;3.30;;;11.70;99.90;;;;;;5023055;28;20458;-70
2021/05/19 05:52:48;;;;;;;12.87;4.13;;;11.60;99.90;;;;;;5023030;28;21029;-70
2021/05/19 05:55:14;;;;;;;7.30;3.47;;;11.70;99.90;;;;;;5013024;28;20439;-67
2021/05/19 05:57:40;;;;;;;7.53;3.70;;;11.70;99.90;;;;;;5023196;28;20605;-70
2021/05/19 06:00:08;;;;;;;7.93;4.10;;;11.80;99.90;;;;;;5023113;28;20666;-69
2021/05/19 06:02:34;;;;;;;4.73;3.90;;;11.80;99.90;;;;;;5024074;28;20405;-70
2021/05/19 06:04:59;;;;;;;4.23;3.77;;;11.70;99.90;;;;;;5024112;28;21812;-69
2021/05/19 06:07:25;;;;;;;8.43;5.30;;;11.80;99.90;;;;;;5022954;28;20201;-70
2021/05/19 06:09:52;;;;;;;5.27;4.70;;;11.70;99.90;;;;;;5025269;28;20706;-69
2021/05/19 06:12:19;;;;;;;6.40;5.23;;;11.70;99.90;;;;;;5021349;28;20219;-71
2021/05/19 06:14:45;;;;;;;5.23;4.80;;;11.70;99.90;;;;;;5018055;28;20830;-70
2021/05/19 06:17:13;;;;;;;5.40;4.67;;;11.80;99.90;;;;;;5024117;28;20510;-70
2021/05/19 06:19:39;;;;;;;5.33;4.40;;;11.80;99.90;;;;;;5021977;28;20443;-68
2021/05/19 06:22:05;;;;;;;4.83;4.43;;;11.80;99.90;;;;;;5022580;28;20428;-71
2021/05/19 06:24:30;;;;;;;5.90;4.63;;;11.90;99.90;;;;;;5023890;28;20457;-72
2021/05/19 06:26:56;;;;;;;6.00;4.43;;;12.00;99.90;;;;;;5023712;28;20192;-69
2021/05/19 06:29:22;;;;;;;9.90;4.70;;;11.90;99.90;;;;;;5021675;28;20223;-71
2021/05/19 06:31:47;;;;;;;7.27;4.60;;;11.90;99.90;;;;;;5022741;28;20674;-70
2021/05/19 06:34:13;;;;;;;4.93;4.43;;;11.90;99.90;;;;;;5023925;28;20294;-69
2021/05/19 06:36:43;;;;;;;7.50;4.13;;;12.00;99.90;;;;;;5022818;28;20196;-70
2021/05/19 06:39:09;;;;;;;6.50;4.87;;;11.80;99.90;;;;;;5020045;28;20760;-70
2021/05/19 06:41:34;;;;;;;7.60;4.00;;;11.90;99.90;;;;;;5020999;28;20436;-71
2021/05/19 06:44:00;;;;;;;6.60;4.53;;;11.90;99.90;;;;;;5024326;28;20218;-70
2021/05/19 06:46:26;;;;;;;5.00;4.50;;;11.90;99.90;;;;;;5023166;28;20567;-68
2021/05/19 06:48:52;;;;;;;19.70;5.47;;;11.90;99.90;;;;;;5021569;28;20268;-70
2021/05/19 06:51:17;;;;;;;7.17;4.33;;;12.10;99.90;;;;;;5024107;28;20204;-71
2021/05/19 06:53:43;;;;;;;8.73;4.40;;;12.00;99.90;;;;;;5024939;28;20458;-68
2021/05/19 06:56:09;;;;;;;6.07;4.70;;;12.10;99.90;;;;;;5019941;28;20268;-70
2021/05/19 06:58:34;;;;;;;7.40;6.30;;;12.10;99.90;;;;;;5024128;28;20529;-69
2021/05/19 07:01:00;;;;;;;12.10;4.93;;;12.10;99.90;;;;;;5021429;28;20270;-72
2021/05/19 07:03:26;;;;;;;7.63;6.13;;;11.90;99.90;;;;;;5021970;28;20303;-71
2021/05/19 07:05:51;;;;;;;9.60;5.80;;;11.80;99.90;;;;;;5023031;28;20660;-69
2021/05/19 07:08:19;;;;;;;6.53;5.47;;;11.90;99.90;;;;;;5021257;28;20207;-69
2021/05/19 07:10:44;;;;;;;7.33;5.20;;;11.80;99.90;;;;;;5023407;28;20247;-70
2021/05/19 07:13:10;;;;;;;6.77;5.50;;;11.80;99.90;;;;;;5022406;28;20463;-71
2021/05/19 07:15:39;;;;;;;5.70;5.10;;;11.70;99.90;;;;;;5024725;28;20621;-70
2021/05/19 07:18:08;;;;;;;11.80;5.60;;;11.70;99.90;;;;;;5025872;28;20204;-69
2021/05/19 07:20:34;;;;;;;6.27;5.67;;;11.80;99.90;;;;;;5024550;28;20436;-69
2021/05/19 07:23:00;;;;;;;8.57;6.00;;;11.80;99.90;;;;;;5020596;28;20914;-71
2021/05/19 07:25:26;;;;;;;12.37;5.20;;;11.90;99.90;;;;;;5022273;28;20224;-69
2021/05/19 07:27:52;;;;;;;6.33;5.73;;;12.10;99.90;;;;;;5020558;28;20458;-68
2021/05/19 07:30:19;;;;;;;7.90;5.37;;;12.20;99.90;;;;;;5022911;28;20467;-68
2021/05/19 07:32:45;;;;;;;10.93;6.30;;;12.40;99.90;;;;;;5023027;28;20967;-69
2021/05/19 07:35:11;;;;;;;10.17;6.23;;;12.50;99.90;;;;;;5023222;28;20435;-69
2021/05/19 07:37:36;;;;;;;5.50;5.00;;;12.50;99.90;;;;;;5022195;28;20434;-70
2021/05/19 07:40:03;;;;;;;10.67;5.40;;;12.60;99.90;;;;;;5025731;28;20435;-70
2021/05/19 07:42:29;;;;;;;6.80;5.70;;;12.60;99.90;;;;;;5021233;28;20197;-69
2021/05/19 07:44:54;;;;;;;6.77;5.63;;;12.70;99.90;;;;;;5022941;28;20454;-68
2021/05/19 07:47:20;;;;;;;10.37;6.30;;;12.90;99.90;;;;;;5022065;28;20210;-68
2021/05/19 07:49:46;;;;;;;6.17;5.10;;;13.00;99.90;;;;;;5021112;28;20213;-69
2021/05/19 07:52:11;;;;;;;6.97;5.73;;;13.10;99.90;;;;;;5022169;28;20188;-70
2021/05/19 07:54:37;;;;;;;5.73;5.13;;;13.00;99.90;;;;;;5023874;28;20208;-69
2021/05/19 07:57:15;;;;;;;5.37;4.87;;;13.10;99.90;;;;;;5023075;28;20193;-68
2021/05/19 07:59:42;;;;;;;5.73;4.90;;;13.20;99.90;;;;;;5020229;28;20208;-68
2021/05/19 08:02:10;;;;;;;6.10;5.50;;;13.10;99.90;;;;;;5026474;28;20453;-70
2021/05/19 08:04:37;;;;;;;6.33;4.87;;;13.00;99.90;;;;;;5018834;28;20878;-70
2021/05/19 08:07:04;;;;;;;5.80;5.30;;;13.20;99.90;;;;;;5024556;28;20439;-69
2021/05/19 08:09:30;;;;;;;7.80;4.60;;;13.30;99.90;;;;;;5027084;28;20470;-69
2021/05/19 08:11:57;;;;;;;7.60;5.80;;;13.30;99.90;;;;;;5025140;28;20466;-69
2021/05/19 08:14:26;;;;;;;5.77;4.97;;;13.50;99.90;;;;;;5026871;28;20203;-71
2021/05/19 08:16:52;;;;;;;6.60;5.20;;;13.60;99.90;;;;;;5026828;28;20524;-69
2021/05/19 08:19:18;;;;;;;10.20;4.43;;;13.60;99.90;;;;;;5025769;28;20442;-69
2021/05/19 08:21:43;;;;;;;4.90;4.50;;;13.60;99.90;;;;;;5027022;28;20525;-70
2021/05/19 08:24:10;;;;;;;5.00;4.60;;;13.70;99.90;;;;;;5026748;28;20283;-70
2021/05/19 08:26:36;;;;;;;8.33;5.23;;;13.70;99.90;;;;;;5026626;28;20195;-70
2021/05/19 08:29:03;;;;;;;8.83;6.20;;;13.70;99.90;;;;;;5024806;28;20465;-70
2021/05/19 08:31:28;;;;;;;5.33;4.83;;;13.80;99.90;;;;;;5024078;28;20443;-72
2021/05/19 08:33:56;;;;;;;6.17;4.97;;;13.80;99.90;;;;;;5021525;28;20503;-69
2021/05/19 08:36:23;;;;;;;6.20;5.60;;;14.00;99.90;;;;;;5026384;28;20192;-70
2021/05/19 08:38:48;;;;;;;5.33;4.93;;;14.00;99.90;;;;;;5026499;28;21208;-69
2021/05/19 08:41:14;;;;;;;9.00;5.40;;;14.10;99.90;;;;;;5025777;28;20493;-69
2021/05/19 08:43:40;;;;;;;6.87;6.17;;;14.20;99.90;;;;;;5025459;28;20255;-69
2021/05/19 08:46:07;;;;;;;5.53;5.03;;;14.00;99.90;;;;;;5023867;28;20195;-71
2021/05/19 08:48:34;;;;;;;5.20;4.80;;;14.20;99.90;;;;;;5026455;28;20319;-71
2021/05/19 08:51:00;;;;;;;4.17;3.73;;;14.10;99.90;;;;;;5023281;28;20466;-71
2021/05/19 08:53:27;;;;;;;3.50;3.03;;;14.30;99.90;;;;;;5020407;28;20462;-69
2021/05/19 08:55:53;;;;;;;3.80;3.50;;;14.40;99.90;;;;;;5022029;28;20193;-70
2021/05/19 08:58:19;;;;;;;3.90;3.20;;;14.30;99.90;;;;;;5025754;28;21062;-72
2021/05/19 09:00:44;;;;;;;4.17;3.77;;;14.40;99.90;;;;;;5023143;28;20442;-70
2021/05/19 09:03:16;;;;;;;5.20;3.80;;;14.50;99.90;;;;;;5022660;28;20859;-70
2021/05/19 09:05:44;;;;;;;3.70;3.43;;;14.70;99.90;;;;;;5026701;28;20203;-71
2021/05/19 09:08:15;;;;;;;3.97;3.43;;;14.70;99.90;;;;;;5024860;28;20518;-69
2021/05/19 09:10:43;;;;;;;4.00;3.57;;;14.90;99.90;;;;;;5023401;28;21058;-68
2021/05/19 09:13:33;;;;;;;12.23;3.30;;;14.90;99.90;;;;;;5026117;28;20443;-69
2021/05/19 09:16:00;;;;;;;3.73;3.43;;;15.00;99.90;;;;;;5023758;28;20427;-69
2021/05/19 09:18:51;;;;;;;3.90;3.50;;;14.90;99.90;;;;;;5023382;28;20447;-69
2021/05/19 09:21:38;;;;;;;3.30;3.00;;;15.00;99.90;;;;;;5024962;28;20477;-69
2021/05/19 09:24:30;;;;;;;3.60;3.07;;;15.20;99.90;;;;;;5022591;28;20453;-70
2021/05/19 09:27:00;;;;;;;2.90;2.70;;;15.30;99.90;;;;;;5021845;28;20455;-70
2021/05/19 09:29:35;;;;;;;3.67;3.23;;;15.30;99.90;;;;;;5026133;28;20516;-70
2021/05/19 09:32:07;;;;;;;3.10;2.90;;;15.50;99.90;;;;;;5021007;28;20842;-69
2021/05/19 09:34:38;;;;;;;5.77;3.53;;;15.40;99.90;;;;;;5022723;28;21083;-69
2021/05/19 09:37:16;;;;;;;7.00;3.80;;;15.60;99.90;;;;;;5010576;28;20880;-69
2021/05/19 09:39:49;;;;;;;3.30;2.77;;;15.70;99.90;;;;;;5025851;28;20440;-69
2021/05/19 09:42:15;;;;;;;4.03;3.40;;;15.60;99.90;;;;;;5023588;28;20774;-69
2021/05/19 09:44:44;;;;;;;3.03;2.83;;;15.80;99.90;;;;;;5007326;28;20471;-69
2021/05/19 09:47:10;;;;;;;5.07;2.87;;;15.90;99.90;;;;;;5024157;28;20500;-69
2021/05/19 09:49:36;;;;;;;7.53;3.53;;;16.10;99.90;;;;;;5004494;28;20550;-69
2021/05/19 09:52:13;;;;;;;3.23;2.93;;;16.10;99.90;;;;;;5022928;28;20463;-68
2021/05/19 09:54:45;;;;;;;4.63;2.97;;;16.30;99.90;;;;;;5023895;28;20458;-69
2021/05/19 09:57:14;;;;;;;3.90;2.97;;;16.30;99.90;;;;;;5021944;28;20455;-69
2021/05/19 09:59:45;;;;;;;3.33;2.97;;;16.40;99.90;;;;;;5024578;28;20436;-69
2021/05/19 10:02:12;;;;;;;4.30;3.10;;;16.50;99.90;;;;;;5023772;28;20493;-68
2021/05/19 10:04:40;;;;;;;5.13;3.30;;;16.60;99.90;;;;;;5024769;28;20459;-68
2021/05/19 10:07:15;;;;;;;4.97;3.03;;;16.70;99.90;;;;;;5022337;28;20957;-67
2021/05/19 10:09:42;;;;;;;3.67;3.17;;;16.70;99.90;;;;;;5023914;28;20573;-69
2021/05/19 10:12:08;;;;;;;3.90;2.83;;;16.60;99.90;;;;;;5024631;28;20523;-70
2021/05/19 10:14:36;;;;;;;2.90;2.70;;;16.80;99.90;;;;;;5025586;28;20454;-70
2021/05/19 10:17:09;;;;;;;2.97;2.77;;;17.00;99.90;;;;;;5023878;28;20423;-68
2021/05/19 10:19:50;;;;;;;6.43;3.10;;;17.30;99.90;;;;;;5025328;28;20431;-69
2021/05/19 10:22:18;;;;;;;4.70;3.13;;;17.40;99.90;;;;;;5021989;28;20576;-71
2021/05/19 10:25:34;;;;;;;3.00;2.80;;;17.70;99.90;;;;;;5023770;28;20508;-68
2021/05/19 10:27:50;;;;;;;3.33;2.83;;;18.10;99.90;;;;;;5020222;28;20514;-69
2021/05/19 10:30:38;;;;;;;3.27;3.03;;;18.10;99.90;;;;;;5022153;28;20458;-69
2021/05/19 10:33:05;;;;;;;3.50;3.00;;;17.90;99.90;;;;;;5019844;28;20522;-69
2021/05/19 10:35:38;;;;;;;3.03;2.83;;;17.60;99.90;;;;;;5023002;28;21006;-71
2021/05/19 10:38:22;;;;;;;3.00;2.80;;;17.80;99.90;;;;;;5021674;28;20443;-69
2021/05/19 10:40:56;;;;;;;4.20;3.00;;;18.00;99.90;;;;;;5023084;28;20443;-70
2021/05/19 10:43:42;;;;;;;6.53;3.13;;;18.00;99.90;;;;;;5021988;28;20478;-71
2021/05/19 10:46:07;;;;;;;6.33;3.43;;;18.00;99.90;;;;;;5023279;28;20442;-71
2021/05/19 10:48:35;;;;;;;3.50;3.20;;;18.10;99.90;;;;;;5024144;28;20979;-69
2021/05/19 10:51:53;;;;;;;3.47;3.00;;;18.40;99.90;;;;;;5023738;28;20220;-69
2021/05/19 10:57:35;;;;;;;4.63;3.27;;;18.90;99.90;;;;;;5022373;28;20418;-69
2021/05/19 11:00:26;;;;;;;3.63;3.33;;;19.10;99.90;;;;;;5024077;28;20798;-70
2021/05/19 11:02:55;;;;;;;3.10;2.80;;;19.10;99.90;;;;;;5023614;28;20537;-71
2021/05/19 11:05:21;;;;;;;3.23;2.90;;;19.20;99.90;;;;;;5019840;28;20434;-70
2021/05/19 11:08:16;;;;;;;4.30;3.90;;;19.30;99.90;;;;;;5024669;28;20929;-69
2021/05/19 11:10:51;;;;;;;3.40;3.10;;;19.00;99.90;;;;;;5017353;28;21572;-70
2021/05/19 11:13:23;;;;;;;3.37;3.07;;;18.90;99.90;;;;;;5022504;28;20501;-69
2021/05/19 11:18:59;;;;;;;3.60;2.67;;;18.80;99.90;;;;;;5023343;28;21204;-69
2021/05/19 11:21:23;;;;;;;2.97;2.63;;;18.60;99.90;;;;;;5022893;28;20445;-69
2021/05/19 11:24:12;;;;;;;3.37;3.07;;;18.60;98.40;;;;;;5023696;28;20458;-68
2021/05/19 11:26:41;;;;;;;3.00;2.80;;;18.80;97.20;;;;;;5022973;28;20459;-69
2021/05/19 11:29:08;;;;;;;6.37;3.33;;;18.90;96.30;;;;;;5020645;28;20469;-68
2021/05/19 11:31:40;;;;;;;3.40;3.10;;;19.10;97.40;;;;;;5020738;28;20444;-68
2021/05/19 11:34:06;;;;;;;6.00;3.50;;;19.30;96.90;;;;;;5020173;28;20454;-71
2021/05/19 11:36:52;;;;;;;3.30;3.00;;;19.50;98.20;;;;;;5023287;28;20423;-69
2021/05/19 11:39:39;;;;;;;3.33;3.00;;;19.80;98.10;;;;;;5022717;28;20435;-72
2021/05/19 11:42:22;;;;;;;5.97;3.03;;;20.00;97.90;;;;;;5022041;28;20435;-69
2021/05/19 11:44:55;;;;;;;4.73;3.50;;;20.10;96.70;;;;;;5019059;28;20447;-68
2021/05/19 11:47:40;;;;;;;4.43;3.03;;;20.20;96.60;;;;;;5014623;28;20439;-69
2021/05/19 11:50:44;;;;;;;3.53;3.10;;;20.40;95.40;;;;;;5022042;28;20459;-68
2021/05/19 11:53:10;;;;;;;2.90;2.70;;;20.40;94.50;;;;;;5018722;28;20566;-69
2021/05/19 11:55:38;;;;;;;3.77;3.30;;;20.40;94.40;;;;;;5015352;28;20941;-68
2021/05/19 11:58:14;;;;;;;3.47;3.17;;;20.10;92.60;;;;;;5018164;28;20196;-68
2021/05/19 12:00:56;;;;;;;3.20;2.90;;;20.00;93.50;;;;;;5015882;28;21089;-69
2021/05/19 12:03:26;;;;;;;5.63;5.10;;;20.10;93.60;;;;;;5016434;28;20455;-69
2021/05/19 12:06:01;;;;;;;3.77;3.40;;;20.10;90.70;;;;;;5019394;28;20526;-69
2021/05/19 12:08:30;;;;;;;3.33;3.13;;;20.10;89.60;;;;;;5020963;28;20525;-69
2021/05/19 12:11:15;;;;;;;4.77;3.13;;;20.00;90.10;;;;;;5015836;28;21004;-69
2021/05/19 12:13:53;;;;;;;5.20;3.77;;;20.10;91.50;;;;;;5020993;28;20505;-70
2021/05/19 12:16:29;;;;;;;5.20;4.70;;;20.10;89.80;;;;;;5017602;28;20518;-68
2021/05/19 12:19:09;;;;;;;7.00;3.00;;;19.90;89.40;;;;;;5023241;28;20419;-69
2021/05/19 12:22:19;;;;;;;3.37;3.00;;;19.70;89.10;;;;;;5021091;28;20444;-70
2021/05/19 12:24:45;;;;;;;3.53;3.23;;;19.50;88.00;;;;;;5016770;28;20865;-70
2021/05/19 12:27:19;;;;;;;3.40;3.10;;;19.70;90.20;;;;;;5018784;28;20442;-69
2021/05/19 12:29:51;;;;;;;7.83;3.70;;;20.10;89.20;;;;;;5014563;28;22762;-70
2021/05/19 12:32:17;;;;;;;4.60;3.03;;;20.30;86.40;;;;;;5016108;28;20439;-70
2021/05/19 12:34:57;;;;;;;3.50;3.20;;;20.10;86.10;;;;;;5017283;28;20458;-69
2021/05/19 12:38:10;;;;;;;6.97;3.43;;;19.90;83.90;;;;;;5018652;28;20654;-71
2021/05/19 12:40:37;;;;;;;2.93;2.73;;;19.90;83.80;;;;;;4993982;28;20444;-69
2021/05/19 12:43:08;;;;;;;5.77;3.40;;;19.70;83.00;;;;;;5015931;28;20459;-70
2021/05/19 12:45:39;;;;;;;3.63;3.20;;;19.70;84.40;;;;;;5016272;28;20440;-69
2021/05/19 12:48:14;;;;;;;3.53;3.10;;;19.60;83.40;;;;;;5019798;28;20443;-70
2021/05/19 12:51:00;;;;;;;3.27;3.00;;;19.50;83.80;;;;;;5019809;28;20532;-69
2021/05/19 12:53:45;;;;;;;3.17;2.73;;;19.30;83.40;;;;;;5019259;28;20539;-70
2021/05/19 12:56:16;;;;;;;3.13;2.93;;;19.00;84.00;;;;;;5020022;28;20457;-70
2021/05/19 12:58:56;;;;;;;4.70;3.10;;;18.70;85.00;;;;;;5019794;28;20524;-68
2021/05/19 13:01:23;;;;;;;3.17;2.97;;;18.50;85.70;;;;;;5020957;28;20485;-68